메인 페이지
METAR-TAF:

METAR-TAF

공항 :

잭슨, 미시시피, 미국

위도: 32-19-11N, 경도: 090-04-39W, 고도: 105m

현재 날씨관측

예보는 42분 전, 23:54시(UTC)에 발표되었습니다.
8kt
온도 19°C
습도 73%
기압 1014 hPa
시정: 16.1km
고도 8500ft 상공 흐림

METAR: KJAN 282354Z 36008KT 10SM OVC085 19/14 A2995 RMK AO2 SLP140 T01890139 10211 20183 53006

시각: 19:36 (00:36 UTC)

예보

예보는 56분 전, 23:40시(UTC)에 발표되었습니다.
예보 대상 시간: 29일 00시부터 29일 24시까지 (UTC)
북북서6kt
시정: 10km
고도 7000ft 상공 구름 많음
29일 1800시부터 (UTC)
북북서10kt, 순간 최대 풍속 19kt
시정: 10km
고도 5000ft 상공 구름 보통
29일 2200시부터 (UTC)
북서9kt
시정: 10km
맑음

TAF: KJAN 282340Z 2900/2924 34006KT P6SM BKN070 FM291800 33010G19KT P6SM SCT050 FM292200 32009KT P6SM SKC

4,000개 이상의 공항 관측 자료 및 예보 (METAR 및 TAF 보고).

지도상에서 검색 가능한 기상관측소가 노란 점과 빨간 점으로 표시되어 있습니다.

기상관측소 명을 보려면 표시 위로 마우스를 이동하세요.

날씨 관측과 예보를 보려면 클릭하세요.

지도 변경 : 확대하려면 엑스 표시가 있는 녹색 버튼, 축소하려면 빼기 표시가 있는 녹색 버튼, 다음 페이지의 지도를 보려면 녹색 화살표를 클릭하세요.


METAR-TAF: